sensor_id;sensor_type;location;lat;lon;timestamp;pressure;altitude;pressure_sealevel;temperature;humidity
17615;BME280;8926;49.720;6.576;2022-07-23T00:02:21;99657.13;;;23.92;56.49
17615;BME280;8926;49.720;6.576;2022-07-23T00:04:46;99675.50;;;23.87;57.28
17615;BME280;8926;49.720;6.576;2022-07-23T00:07:11;99679.53;;;23.83;57.65
17615;BME280;8926;49.720;6.576;2022-07-23T00:09:36;99697.22;;;23.76;57.93
17615;BME280;8926;49.720;6.576;2022-07-23T00:12:02;99698.09;;;23.68;58.63
17615;BME280;8926;49.720;6.576;2022-07-23T00:14:27;99708.47;;;23.63;59.48
17615;BME280;8926;49.720;6.576;2022-07-23T00:16:52;99710.63;;;23.59;61.01
17615;BME280;8926;49.720;6.576;2022-07-23T00:19:18;99721.97;;;23.53;61.18
17615;BME280;8926;49.720;6.576;2022-07-23T00:21:43;99730.97;;;23.44;61.10
17615;BME280;8926;49.720;6.576;2022-07-23T00:24:08;99743.66;;;23.34;60.54
17615;BME280;8926;49.720;6.576;2022-07-23T00:26:34;99756.47;;;23.22;60.71
17615;BME280;8926;49.720;6.576;2022-07-23T00:28:59;99767.31;;;23.13;62.00
17615;BME280;8926;49.720;6.576;2022-07-23T00:31:24;99768.66;;;23.09;62.14
17615;BME280;8926;49.720;6.576;2022-07-23T00:33:50;99767.00;;;23.08;61.25
17615;BME280;8926;49.720;6.576;2022-07-23T00:36:15;99763.97;;;22.94;62.36
17615;BME280;8926;49.720;6.576;2022-07-23T00:38:40;99750.16;;;22.83;63.85
17615;BME280;8926;49.720;6.576;2022-07-23T00:41:05;99718.69;;;22.78;63.22
17615;BME280;8926;49.720;6.576;2022-07-23T00:43:31;99717.31;;;22.66;62.50
17615;BME280;8926;49.720;6.576;2022-07-23T00:45:56;99719.63;;;22.61;62.54
17615;BME280;8926;49.720;6.576;2022-07-23T00:48:21;99720.97;;;22.57;63.55
17615;BME280;8926;49.720;6.576;2022-07-23T00:50:47;99722.97;;;22.55;64.90
17615;BME280;8926;49.720;6.576;2022-07-23T00:53:13;99727.97;;;22.58;64.29
17615;BME280;8926;49.720;6.576;2022-07-23T00:55:39;99728.66;;;22.60;64.18
17615;BME280;8926;49.720;6.576;2022-07-23T00:58:04;99721.97;;;22.56;64.72
17615;BME280;8926;49.720;6.576;2022-07-23T01:00:30;99721.44;;;22.44;64.77
17615;BME280;8926;49.720;6.576;2022-07-23T01:02:55;99739.41;;;22.34;65.07
17615;BME280;8926;49.720;6.576;2022-07-23T01:05:21;99765.00;;;22.27;65.89
17615;BME280;8926;49.720;6.576;2022-07-23T01:07:50;99781.81;;;22.27;65.52
17615;BME280;8926;49.720;6.576;2022-07-23T01:10:16;99797.13;;;22.33;65.87
17615;BME280;8926;49.720;6.576;2022-07-23T01:12:58;99810.47;;;22.42;64.90
17615;BME280;8926;49.720;6.576;2022-07-23T01:15:24;99818.47;;;22.50;64.76
17615;BME280;8926;49.720;6.576;2022-07-23T01:17:50;99793.84;;;22.48;64.11
17615;BME280;8926;49.720;6.576;2022-07-23T01:20:16;99743.91;;;22.42;63.62
17615;BME280;8926;49.720;6.576;2022-07-23T01:22:41;99725.28;;;22.33;63.01
17615;BME280;8926;49.720;6.576;2022-07-23T01:25:07;99724.59;;;22.31;62.83
17615;BME280;8926;49.720;6.576;2022-07-23T01:27:33;99704.28;;;22.30;62.07
17615;BME280;8926;49.720;6.576;2022-07-23T01:30:00;99685.97;;;22.27;62.52
17615;BME280;8926;49.720;6.576;2022-07-23T01:32:25;99694.97;;;22.26;63.28
17615;BME280;8926;49.720;6.576;2022-07-23T01:34:51;99689.13;;;22.23;62.68
17615;BME280;8926;49.720;6.576;2022-07-23T01:37:16;99689.63;;;22.18;62.67
17615;BME280;8926;49.720;6.576;2022-07-23T01:39:41;99695.94;;;22.17;62.78
17615;BME280;8926;49.720;6.576;2022-07-23T01:42:07;99697.59;;;22.18;63.80
17615;BME280;8926;49.720;6.576;2022-07-23T01:44:32;99695.44;;;22.22;63.06
17615;BME280;8926;49.720;6.576;2022-07-23T01:46:57;99696.44;;;22.21;63.04
17615;BME280;8926;49.720;6.576;2022-07-23T01:49:23;99699.94;;;22.21;64.18
17615;BME280;8926;49.720;6.576;2022-07-23T01:51:48;99702.25;;;22.16;63.62
17615;BME280;8926;49.720;6.576;2022-07-23T01:54:26;99720.03;;;22.16;64.23
17615;BME280;8926;49.720;6.576;2022-07-23T01:56:52;99718.69;;;22.12;64.36
17615;BME280;8926;49.720;6.576;2022-07-23T01:59:17;99714.38;;;22.11;64.94
17615;BME280;8926;49.720;6.576;2022-07-23T02:01:42;99719.84;;;22.09;63.76
17615;BME280;8926;49.720;6.576;2022-07-23T02:04:08;99727.50;;;22.04;63.81
17615;BME280;8926;49.720;6.576;2022-07-23T02:06:33;99715.03;;;22.05;64.84
17615;BME280;8926;49.720;6.576;2022-07-23T02:08:58;99712.88;;;22.08;63.86
17615;BME280;8926;49.720;6.576;2022-07-23T02:11:23;99691.91;;;22.05;65.06
17615;BME280;8926;49.720;6.576;2022-07-23T02:13:49;99682.44;;;22.03;63.17
17615;BME280;8926;49.720;6.576;2022-07-23T02:16:14;99689.88;;;21.99;64.25
17615;BME280;8926;49.720;6.576;2022-07-23T02:18:39;99687.22;;;21.99;64.16
17615;BME280;8926;49.720;6.576;2022-07-23T02:21:04;99687.22;;;21.99;63.64
17615;BME280;8926;49.720;6.576;2022-07-23T02:23:30;99701.50;;;21.98;63.57
17615;BME280;8926;49.720;6.576;2022-07-23T02:25:55;99695.19;;;21.99;63.72
17615;BME280;8926;49.720;6.576;2022-07-23T02:28:20;99683.56;;;22.00;63.21
17615;BME280;8926;49.720;6.576;2022-07-23T02:30:45;99690.84;;;21.98;64.07
17615;BME280;8926;49.720;6.576;2022-07-23T02:33:11;99696.84;;;22.00;63.76
17615;BME280;8926;49.720;6.576;2022-07-23T02:35:36;99695.56;;;22.04;63.29
17615;BME280;8926;49.720;6.576;2022-07-23T02:38:01;99710.69;;;22.04;63.12
17615;BME280;8926;49.720;6.576;2022-07-23T02:40:27;99720.28;;;21.96;64.13
17615;BME280;8926;49.720;6.576;2022-07-23T02:42:52;99721.22;;;21.87;64.71
17615;BME280;8926;49.720;6.576;2022-07-23T02:45:17;99724.38;;;21.83;67.07
17615;BME280;8926;49.720;6.576;2022-07-23T02:47:42;99716.38;;;21.83;66.77
17615;BME280;8926;49.720;6.576;2022-07-23T02:50:08;99717.22;;;21.83;65.50
17615;BME280;8926;49.720;6.576;2022-07-23T02:52:33;99715.06;;;21.79;65.18
17615;BME280;8926;49.720;6.576;2022-07-23T02:54:59;99716.88;;;21.78;65.32
17615;BME280;8926;49.720;6.576;2022-07-23T02:57:24;99710.75;;;21.78;65.26
17615;BME280;8926;49.720;6.576;2022-07-23T02:59:49;99712.03;;;21.74;66.09
17615;BME280;8926;49.720;6.576;2022-07-23T03:02:14;99709.69;;;21.71;66.22
17615;BME280;8926;49.720;6.576;2022-07-23T03:04:40;99716.78;;;21.62;66.22
17615;BME280;8926;49.720;6.576;2022-07-23T03:07:07;99716.94;;;21.60;65.75
17615;BME280;8926;49.720;6.576;2022-07-23T03:09:33;99730.56;;;21.57;65.92
17615;BME280;8926;49.720;6.576;2022-07-23T03:11:58;99718.28;;;21.56;64.75
17615;BME280;8926;49.720;6.576;2022-07-23T03:14:23;99727.88;;;21.49;64.95
17615;BME280;8926;49.720;6.576;2022-07-23T03:16:48;99718.38;;;21.47;64.60
17615;BME280;8926;49.720;6.576;2022-07-23T03:19:15;99724.53;;;21.47;64.63
17615;BME280;8926;49.720;6.576;2022-07-23T03:21:40;99724.22;;;21.50;65.14
17615;BME280;8926;49.720;6.576;2022-07-23T03:24:08;99725.69;;;21.45;64.77
17615;BME280;8926;49.720;6.576;2022-07-23T03:26:34;99726.97;;;21.41;64.93
17615;BME280;8926;49.720;6.576;2022-07-23T03:28:59;99730.78;;;21.38;65.67
17615;BME280;8926;49.720;6.576;2022-07-23T03:31:26;99734.44;;;21.37;65.03
17615;BME280;8926;49.720;6.576;2022-07-23T03:33:51;99732.75;;;21.36;64.93
17615;BME280;8926;49.720;6.576;2022-07-23T03:36:17;99733.44;;;21.38;64.48
17615;BME280;8926;49.720;6.576;2022-07-23T03:38:42;99741.41;;;21.38;64.49
17615;BME280;8926;49.720;6.576;2022-07-23T03:41:07;99733.59;;;21.37;64.27
17615;BME280;8926;49.720;6.576;2022-07-23T03:43:33;99738.72;;;21.30;63.50
17615;BME280;8926;49.720;6.576;2022-07-23T03:45:58;99738.50;;;21.23;64.00
17615;BME280;8926;49.720;6.576;2022-07-23T03:48:23;99745.00;;;21.11;64.24
17615;BME280;8926;49.720;6.576;2022-07-23T03:50:49;99744.16;;;21.11;64.52
17615;BME280;8926;49.720;6.576;2022-07-23T03:53:14;99754.78;;;21.11;64.87
17615;BME280;8926;49.720;6.576;2022-07-23T03:55:39;99751.47;;;21.09;64.49
17615;BME280;8926;49.720;6.576;2022-07-23T03:58:05;99749.63;;;21.09;64.80
17615;BME280;8926;49.720;6.576;2022-07-23T04:00:30;99748.50;;;21.12;64.43
17615;BME280;8926;49.720;6.576;2022-07-23T04:02:55;99746.00;;;21.10;64.79
17615;BME280;8926;49.720;6.576;2022-07-23T04:05:20;99752.13;;;21.11;63.98
17615;BME280;8926;49.720;6.576;2022-07-23T04:07:46;99758.25;;;21.03;64.16
17615;BME280;8926;49.720;6.576;2022-07-23T04:10:11;99762.03;;;21.00;65.00
17615;BME280;8926;49.720;6.576;2022-07-23T04:12:36;99759.06;;;21.04;64.62
17615;BME280;8926;49.720;6.576;2022-07-23T04:15:02;99757.06;;;21.06;63.59
17615;BME280;8926;49.720;6.576;2022-07-23T04:17:28;99759.06;;;21.04;63.63
17615;BME280;8926;49.720;6.576;2022-07-23T04:19:53;99759.91;;;21.04;63.53
17615;BME280;8926;49.720;6.576;2022-07-23T04:22:19;99761.06;;;21.02;63.54
17615;BME280;8926;49.720;6.576;2022-07-23T04:24:44;99761.34;;;20.98;63.33
17615;BME280;8926;49.720;6.576;2022-07-23T04:27:09;99763.31;;;20.96;64.14
17615;BME280;8926;49.720;6.576;2022-07-23T04:29:34;99759.69;;;20.97;64.11
17615;BME280;8926;49.720;6.576;2022-07-23T04:32:00;99761.97;;;20.92;64.51
17615;BME280;8926;49.720;6.576;2022-07-23T04:34:25;99778.72;;;20.93;64.19
17615;BME280;8926;49.720;6.576;2022-07-23T04:36:52;99776.75;;;20.95;63.90
17615;BME280;8926;49.720;6.576;2022-07-23T04:39:17;99777.13;;;21.00;63.23
17615;BME280;8926;49.720;6.576;2022-07-23T04:41:42;99781.06;;;21.14;63.11
17615;BME280;8926;49.720;6.576;2022-07-23T04:44:07;99791.09;;;21.20;63.17
17615;BME280;8926;49.720;6.576;2022-07-23T04:46:33;99792.78;;;21.21;62.85
17615;BME280;8926;49.720;6.576;2022-07-23T04:48:58;99786.91;;;21.17;63.48
17615;BME280;8926;49.720;6.576;2022-07-23T04:51:23;99787.47;;;21.21;63.64
17615;BME280;8926;49.720;6.576;2022-07-23T04:53:49;99790.50;;;21.26;64.14
17615;BME280;8926;49.720;6.576;2022-07-23T04:56:14;99792.28;;;21.43;63.10
17615;BME280;8926;49.720;6.576;2022-07-23T04:58:40;99793.72;;;21.55;62.64
17615;BME280;8926;49.720;6.576;2022-07-23T05:01:05;99801.56;;;21.65;62.16
17615;BME280;8926;49.720;6.576;2022-07-23T05:03:31;99796.84;;;21.77;61.51
17615;BME280;8926;49.720;6.576;2022-07-23T05:05:56;99793.94;;;21.96;61.01
17615;BME280;8926;49.720;6.576;2022-07-23T05:08:21;99791.72;;;22.17;60.64
17615;BME280;8926;49.720;6.576;2022-07-23T05:10:47;99790.81;;;22.43;59.75
17615;BME280;8926;49.720;6.576;2022-07-23T05:13:14;99794.16;;;22.45;59.88
17615;BME280;8926;49.720;6.576;2022-07-23T05:15:40;99800.19;;;22.63;59.54
17615;BME280;8926;49.720;6.576;2022-07-23T05:18:05;99790.91;;;22.75;59.23
17615;BME280;8926;49.720;6.576;2022-07-23T05:20:31;99802.94;;;22.79;59.73
17615;BME280;8926;49.720;6.576;2022-07-23T05:22:56;99793.63;;;22.99;59.22
17615;BME280;8926;49.720;6.576;2022-07-23T05:25:21;99786.97;;;23.28;58.81
17615;BME280;8926;49.720;6.576;2022-07-23T05:27:47;99782.16;;;23.31;58.39
17615;BME280;8926;49.720;6.576;2022-07-23T05:30:12;99783.97;;;23.31;57.86
17615;BME280;8926;49.720;6.576;2022-07-23T05:32:37;99780.16;;;23.33;57.53
17615;BME280;8926;49.720;6.576;2022-07-23T05:35:05;99786.28;;;23.50;56.89
17615;BME280;8926;49.720;6.576;2022-07-23T05:37:30;99789.28;;;23.72;56.54
17615;BME280;8926;49.720;6.576;2022-07-23T05:40:00;99800.88;;;23.95;56.12
17615;BME280;8926;49.720;6.576;2022-07-23T05:42:25;99805.34;;;24.11;55.16
17615;BME280;8926;49.720;6.576;2022-07-23T05:44:51;99802.13;;;24.31;55.51
17615;BME280;8926;49.720;6.576;2022-07-23T05:47:16;99807.03;;;24.51;54.94
17615;BME280;8926;49.720;6.576;2022-07-23T05:49:42;99809.00;;;24.26;54.69
17615;BME280;8926;49.720;6.576;2022-07-23T05:52:08;99806.88;;;24.44;54.52
17615;BME280;8926;49.720;6.576;2022-07-23T05:54:34;99805.28;;;24.66;53.72
17615;BME280;8926;49.720;6.576;2022-07-23T05:57:00;99807.31;;;24.87;53.12
17615;BME280;8926;49.720;6.576;2022-07-23T05:59:25;99811.69;;;25.11;52.97
17615;BME280;8926;49.720;6.576;2022-07-23T06:01:50;99804.97;;;25.15;50.95
17615;BME280;8926;49.720;6.576;2022-07-23T06:04:16;99816.72;;;25.28;51.92
17615;BME280;8926;49.720;6.576;2022-07-23T06:06:41;99816.59;;;25.22;50.74
17615;BME280;8926;49.720;6.576;2022-07-23T06:09:06;99832.53;;;25.38;51.04
17615;BME280;8926;49.720;6.576;2022-07-23T06:11:32;99840.88;;;25.43;50.95
17615;BME280;8926;49.720;6.576;2022-07-23T06:13:57;99841.06;;;25.56;51.38
17615;BME280;8926;49.720;6.576;2022-07-23T06:16:22;99830.00;;;25.59;50.78
17615;BME280;8926;49.720;6.576;2022-07-23T06:18:48;99835.69;;;25.64;50.41
17615;BME280;8926;49.720;6.576;2022-07-23T06:21:13;99840.38;;;25.77;50.59
17615;BME280;8926;49.720;6.576;2022-07-23T06:23:38;99832.69;;;25.97;49.65
17615;BME280;8926;49.720;6.576;2022-07-23T06:26:03;99832.41;;;26.36;49.73
17615;BME280;8926;49.720;6.576;2022-07-23T06:28:29;99833.78;;;26.47;48.31
17615;BME280;8926;49.720;6.576;2022-07-23T06:30:54;99829.16;;;26.41;48.27
17615;BME280;8926;49.720;6.576;2022-07-23T06:33:19;99828.94;;;26.27;48.75
17615;BME280;8926;49.720;6.576;2022-07-23T06:35:45;99837.09;;;26.19;49.20
17615;BME280;8926;49.720;6.576;2022-07-23T06:38:10;99835.97;;;26.28;48.24
17615;BME280;8926;49.720;6.576;2022-07-23T06:40:35;99838.00;;;26.56;47.05
17615;BME280;8926;49.720;6.576;2022-07-23T06:43:00;99835.16;;;26.79;47.38
17615;BME280;8926;49.720;6.576;2022-07-23T06:45:26;99838.00;;;26.92;46.92
17615;BME280;8926;49.720;6.576;2022-07-23T06:47:51;99847.03;;;27.06;46.01
17615;BME280;8926;49.720;6.576;2022-07-23T06:50:16;99839.25;;;27.32;45.78
17615;BME280;8926;49.720;6.576;2022-07-23T06:52:42;99840.41;;;27.44;44.76
17615;BME280;8926;49.720;6.576;2022-07-23T06:55:07;99838.59;;;27.51;45.47
17615;BME280;8926;49.720;6.576;2022-07-23T06:57:32;99834.31;;;27.78;44.82
17615;BME280;8926;49.720;6.576;2022-07-23T06:59:58;99842.63;;;27.90;44.80
17615;BME280;8926;49.720;6.576;2022-07-23T07:02:23;99845.03;;;27.78;42.45
17615;BME280;8926;49.720;6.576;2022-07-23T07:04:49;99841.81;;;27.40;42.53
17615;BME280;8926;49.720;6.576;2022-07-23T07:07:14;99846.63;;;27.23;44.72
17615;BME280;8926;49.720;6.576;2022-07-23T07:09:40;99852.88;;;26.94;44.18
17615;BME280;8926;49.720;6.576;2022-07-23T07:12:05;99856.66;;;26.64;44.98
17615;BME280;8926;49.720;6.576;2022-07-23T07:14:30;99858.91;;;26.46;45.73
17615;BME280;8926;49.720;6.576;2022-07-23T07:16:56;99858.63;;;26.41;46.24
17615;BME280;8926;49.720;6.576;2022-07-23T07:19:21;99867.59;;;26.18;45.82
17615;BME280;8926;49.720;6.576;2022-07-23T07:21:46;99860.34;;;26.04;46.10
17615;BME280;8926;49.720;6.576;2022-07-23T07:24:12;99861.88;;;26.21;45.91
17615;BME280;8926;49.720;6.576;2022-07-23T07:26:37;99858.88;;;26.75;45.86
17615;BME280;8926;49.720;6.576;2022-07-23T07:29:04;99851.63;;;27.33;45.00
17615;BME280;8926;49.720;6.576;2022-07-23T07:31:29;99858.28;;;27.80;43.59
17615;BME280;8926;49.720;6.576;2022-07-23T07:33:55;99856.22;;;28.16;42.81
17615;BME280;8926;49.720;6.576;2022-07-23T07:36:22;99858.16;;;28.22;42.68
17615;BME280;8926;49.720;6.576;2022-07-23T07:38:47;99856.75;;;27.98;42.36
17615;BME280;8926;49.720;6.576;2022-07-23T07:41:12;99854.19;;;27.90;43.33
17615;BME280;8926;49.720;6.576;2022-07-23T07:43:38;99861.88;;;28.21;42.67
17615;BME280;8926;49.720;6.576;2022-07-23T07:46:03;99856.63;;;28.48;43.25
17615;BME280;8926;49.720;6.576;2022-07-23T07:48:29;99853.66;;;28.36;42.79
17615;BME280;8926;49.720;6.576;2022-07-23T07:50:54;99867.72;;;28.31;42.38
17615;BME280;8926;49.720;6.576;2022-07-23T07:53:20;99862.91;;;28.68;41.21
17615;BME280;8926;49.720;6.576;2022-07-23T07:55:45;99863.53;;;28.70;41.34
17615;BME280;8926;49.720;6.576;2022-07-23T07:58:11;99866.91;;;28.85;41.46
17615;BME280;8926;49.720;6.576;2022-07-23T08:00:36;99864.16;;;28.72;41.65
17615;BME280;8926;49.720;6.576;2022-07-23T08:03:01;99873.75;;;28.88;41.64
17615;BME280;8926;49.720;6.576;2022-07-23T08:05:28;99872.97;;;29.00;40.84
17615;BME280;8926;49.720;6.576;2022-07-23T08:07:55;99870.53;;;29.19;40.58
17615;BME280;8926;49.720;6.576;2022-07-23T08:10:21;99865.16;;;29.19;40.65
17615;BME280;8926;49.720;6.576;2022-07-23T08:12:48;99869.72;;;29.25;40.50
17615;BME280;8926;49.720;6.576;2022-07-23T08:15:16;99875.97;;;29.45;40.22
17615;BME280;8926;49.720;6.576;2022-07-23T08:17:43;99871.03;;;29.55;39.61
17615;BME280;8926;49.720;6.576;2022-07-23T08:20:10;99861.88;;;29.63;39.83
17615;BME280;8926;49.720;6.576;2022-07-23T08:22:56;99864.81;;;29.88;39.18
17615;BME280;8926;49.720;6.576;2022-07-23T08:25:27;99873.91;;;30.00;39.69
17615;BME280;8926;49.720;6.576;2022-07-23T08:27:53;99865.81;;;30.13;38.47
17615;BME280;8926;49.720;6.576;2022-07-23T08:30:19;99870.47;;;30.44;39.44
17615;BME280;8926;49.720;6.576;2022-07-23T08:33:01;99869.09;;;30.22;37.81
17615;BME280;8926;49.720;6.576;2022-07-23T08:37:54;99869.31;;;30.20;38.19
17615;BME280;8926;49.720;6.576;2022-07-23T08:40:19;99870.06;;;30.41;38.37
17615;BME280;8926;49.720;6.576;2022-07-23T08:42:49;99867.56;;;30.59;37.79
17615;BME280;8926;49.720;6.576;2022-07-23T08:45:17;99865.84;;;30.71;37.27
17615;BME280;8926;49.720;6.576;2022-07-23T08:47:44;99868.66;;;30.89;37.31
17615;BME280;8926;49.720;6.576;2022-07-23T08:50:10;99872.41;;;30.88;35.95
17615;BME280;8926;49.720;6.576;2022-07-23T08:52:37;99875.97;;;30.82;37.38
17615;BME280;8926;49.720;6.576;2022-07-23T08:55:04;99874.91;;;30.83;36.40
17615;BME280;8926;49.720;6.576;2022-07-23T08:57:29;99874.19;;;30.63;36.58
17615;BME280;8926;49.720;6.576;2022-07-23T08:59:54;99879.91;;;30.80;37.23
17615;BME280;8926;49.720;6.576;2022-07-23T09:02:21;99872.34;;;30.95;36.68
17615;BME280;8926;49.720;6.576;2022-07-23T09:04:46;99872.69;;;31.18;36.95
17615;BME280;8926;49.720;6.576;2022-07-23T09:07:11;99866.88;;;31.15;35.70
17615;BME280;8926;49.720;6.576;2022-07-23T09:09:37;99860.66;;;31.08;35.67
17615;BME280;8926;49.720;6.576;2022-07-23T09:12:07;99864.22;;;31.01;34.80
17615;BME280;8926;49.720;6.576;2022-07-23T09:14:41;99864.81;;;31.17;36.26
17615;BME280;8926;49.720;6.576;2022-07-23T09:17:14;99861.91;;;31.12;35.16
17615;BME280;8926;49.720;6.576;2022-07-23T09:19:41;99853.22;;;31.03;33.61
17615;BME280;8926;49.720;6.576;2022-07-23T09:22:18;99861.28;;;31.16;32.98
17615;BME280;8926;49.720;6.576;2022-07-23T09:28:17;99865.66;;;31.04;33.84
17615;BME280;8926;49.720;6.576;2022-07-23T09:30:36;99870.00;;;30.67;34.73
17615;BME280;8926;49.720;6.576;2022-07-23T09:33:14;99870.88;;;30.61;35.60
17615;BME280;8926;49.720;6.576;2022-07-23T09:35:46;99871.84;;;30.73;35.35
17615;BME280;8926;49.720;6.576;2022-07-23T09:38:12;99875.84;;;30.64;35.05
17615;BME280;8926;49.720;6.576;2022-07-23T09:40:37;99870.16;;;30.79;36.02
17615;BME280;8926;49.720;6.576;2022-07-23T09:43:03;99867.78;;;30.95;35.14
17615;BME280;8926;49.720;6.576;2022-07-23T09:45:28;99863.56;;;31.13;35.24
17615;BME280;8926;49.720;6.576;2022-07-23T09:48:18;99857.75;;;31.09;35.07
17615;BME280;8926;49.720;6.576;2022-07-23T09:50:44;99864.25;;;31.33;35.03
17615;BME280;8926;49.720;6.576;2022-07-23T09:53:23;99852.19;;;31.35;34.40
17615;BME280;8926;49.720;6.576;2022-07-23T09:55:49;99856.59;;;31.55;33.85
17615;BME280;8926;49.720;6.576;2022-07-23T09:58:14;99856.72;;;31.42;33.99
17615;BME280;8926;49.720;6.576;2022-07-23T10:00:42;99860.50;;;31.34;34.57
17615;BME280;8926;49.720;6.576;2022-07-23T10:03:08;99859.34;;;31.23;34.78
17615;BME280;8926;49.720;6.576;2022-07-23T10:05:34;99864.69;;;31.30;35.12
17615;BME280;8926;49.720;6.576;2022-07-23T10:08:02;99858.47;;;31.54;34.23
17615;BME280;8926;49.720;6.576;2022-07-23T10:10:28;99859.72;;;31.83;34.41
17615;BME280;8926;49.720;6.576;2022-07-23T10:12:55;99858.47;;;32.04;33.84
17615;BME280;8926;49.720;6.576;2022-07-23T10:15:27;99865.13;;;32.26;33.59
17615;BME280;8926;49.720;6.576;2022-07-23T10:17:53;99866.31;;;32.30;33.83
17615;BME280;8926;49.720;6.576;2022-07-23T10:20:18;99863.13;;;32.15;32.74
17615;BME280;8926;49.720;6.576;2022-07-23T10:23:05;99866.31;;;32.30;33.46
17615;BME280;8926;49.720;6.576;2022-07-23T10:25:41;99862.13;;;32.34;33.00
17615;BME280;8926;49.720;6.576;2022-07-23T10:34:13;99858.34;;;32.35;32.91
17615;BME280;8926;49.720;6.576;2022-07-23T10:36:52;99852.66;;;32.44;33.45
17615;BME280;8926;49.720;6.576;2022-07-23T10:39:26;99845.75;;;32.48;33.67
17615;BME280;8926;49.720;6.576;2022-07-23T10:42:14;99852.31;;;32.15;32.58
17615;BME280;8926;49.720;6.576;2022-07-23T10:44:41;99853.53;;;32.19;32.99
17615;BME280;8926;49.720;6.576;2022-07-23T10:47:08;99847.84;;;32.46;33.27
17615;BME280;8926;49.720;6.576;2022-07-23T10:49:40;99840.97;;;32.61;32.65
17615;BME280;8926;49.720;6.576;2022-07-23T10:54:48;99844.31;;;32.93;32.43
17615;BME280;8926;49.720;6.576;2022-07-23T10:57:18;99835.78;;;32.78;32.11
17615;BME280;8926;49.720;6.576;2022-07-23T11:02:31;99840.03;;;32.74;32.04
17615;BME280;8926;49.720;6.576;2022-07-23T11:07:34;99837.44;;;32.79;32.03
17615;BME280;8926;49.720;6.576;2022-07-23T11:09:59;99839.69;;;32.64;32.29
17615;BME280;8926;49.720;6.576;2022-07-23T11:20:20;99846.09;;;31.71;33.80
17615;BME280;8926;49.720;6.576;2022-07-23T11:22:46;99839.03;;;31.70;33.88
17615;BME280;8926;49.720;6.576;2022-07-23T11:25:29;99837.03;;;31.59;33.63
17615;BME280;8926;49.720;6.576;2022-07-23T11:27:55;99835.38;;;31.83;33.81
17615;BME280;8926;49.720;6.576;2022-07-23T11:35:39;99829.16;;;32.01;33.60
17615;BME280;8926;49.720;6.576;2022-07-23T11:40:38;99823.47;;;32.64;32.68
17615;BME280;8926;49.720;6.576;2022-07-23T11:43:08;99820.91;;;32.69;32.36
17615;BME280;8926;49.720;6.576;2022-07-23T11:45:48;99821.06;;;32.74;32.92
17615;BME280;8926;49.720;6.576;2022-07-23T11:48:26;99818.59;;;32.54;32.91
17615;BME280;8926;49.720;6.576;2022-07-23T11:50:54;99824.84;;;32.18;32.91
17615;BME280;8926;49.720;6.576;2022-07-23T11:53:29;99828.59;;;32.17;33.32
17615;BME280;8926;49.720;6.576;2022-07-23T11:56:10;99829.50;;;32.48;33.28
17615;BME280;8926;49.720;6.576;2022-07-23T11:58:36;99818.66;;;32.66;32.59
17615;BME280;8926;49.720;6.576;2022-07-23T12:01:02;99820.31;;;32.49;33.07
17615;BME280;8926;49.720;6.576;2022-07-23T12:03:28;99818.66;;;32.11;32.79
17615;BME280;8926;49.720;6.576;2022-07-23T12:05:57;99824.69;;;31.95;33.45
17615;BME280;8926;49.720;6.576;2022-07-23T12:08:23;99818.22;;;32.14;33.76
17615;BME280;8926;49.720;6.576;2022-07-23T12:10:48;99819.78;;;32.03;33.71
17615;BME280;8926;49.720;6.576;2022-07-23T12:13:17;99812.94;;;32.01;33.10
17615;BME280;8926;49.720;6.576;2022-07-23T12:15:49;99828.22;;;31.70;33.05
17615;BME280;8926;49.720;6.576;2022-07-23T12:18:18;99811.78;;;31.47;33.44
17615;BME280;8926;49.720;6.576;2022-07-23T12:20:46;99825.03;;;31.55;34.16
17615;BME280;8926;49.720;6.576;2022-07-23T12:23:14;99816.97;;;31.74;33.41
17615;BME280;8926;49.720;6.576;2022-07-23T12:25:42;99812.00;;;31.70;33.89
17615;BME280;8926;49.720;6.576;2022-07-23T12:28:09;99810.25;;;31.83;33.22
17615;BME280;8926;49.720;6.576;2022-07-23T12:33:05;99800.19;;;31.90;33.25
17615;BME280;8926;49.720;6.576;2022-07-23T12:35:42;99800.09;;;31.96;33.22
17615;BME280;8926;49.720;6.576;2022-07-23T12:38:11;99797.50;;;32.08;33.06
17615;BME280;8926;49.720;6.576;2022-07-23T12:40:42;99801.25;;;32.07;32.96
17615;BME280;8926;49.720;6.576;2022-07-23T12:43:10;99806.94;;;31.99;33.01
17615;BME280;8926;49.720;6.576;2022-07-23T12:45:52;99799.66;;;31.99;32.93
17615;BME280;8926;49.720;6.576;2022-07-23T12:48:28;99799.88;;;31.80;32.73
17615;BME280;8926;49.720;6.576;2022-07-23T12:51:17;99802.97;;;31.58;32.43
17615;BME280;8926;49.720;6.576;2022-07-23T12:53:49;99806.34;;;31.54;33.21
17615;BME280;8926;49.720;6.576;2022-07-23T12:56:17;99795.38;;;31.74;33.33
17615;BME280;8926;49.720;6.576;2022-07-23T12:58:48;99800.94;;;31.79;32.24
17615;BME280;8926;49.720;6.576;2022-07-23T13:03:58;99806.09;;;31.80;32.77
17615;BME280;8926;49.720;6.576;2022-07-23T13:06:25;99794.63;;;31.66;32.49
17615;BME280;8926;49.720;6.576;2022-07-23T13:08:51;99810.00;;;31.41;32.89
17615;BME280;8926;49.720;6.576;2022-07-23T13:11:16;99799.94;;;31.23;33.74
17615;BME280;8926;49.720;6.576;2022-07-23T13:13:41;99797.47;;;31.22;33.22
17615;BME280;8926;49.720;6.576;2022-07-23T13:16:07;99802.84;;;31.22;33.44
17615;BME280;8926;49.720;6.576;2022-07-23T13:18:32;99806.06;;;31.37;33.49
17615;BME280;8926;49.720;6.576;2022-07-23T13:20:58;99800.22;;;31.40;33.56
17615;BME280;8926;49.720;6.576;2022-07-23T13:23:24;99796.16;;;31.31;33.50
17615;BME280;8926;49.720;6.576;2022-07-23T13:25:49;99799.47;;;31.33;33.71
17615;BME280;8926;49.720;6.576;2022-07-23T13:28:16;99803.63;;;31.29;33.34
17615;BME280;8926;49.720;6.576;2022-07-23T13:30:42;99790.31;;;31.34;33.60
17615;BME280;8926;49.720;6.576;2022-07-23T13:33:08;99793.94;;;31.46;33.71
17615;BME280;8926;49.720;6.576;2022-07-23T13:35:36;99795.81;;;31.70;33.95
17615;BME280;8926;49.720;6.576;2022-07-23T13:38:05;99794.47;;;31.80;33.79
17615;BME280;8926;49.720;6.576;2022-07-23T13:40:33;99794.78;;;31.90;33.33
17615;BME280;8926;49.720;6.576;2022-07-23T13:42:59;99797.66;;;31.95;32.65
17615;BME280;8926;49.720;6.576;2022-07-23T13:45:26;99793.97;;;31.64;33.47
17615;BME280;8926;49.720;6.576;2022-07-23T13:47:51;99794.41;;;31.43;33.48
17615;BME280;8926;49.720;6.576;2022-07-23T13:50:17;99787.78;;;31.39;33.80